This is the latest recevied weather packets stored in our database for station/object IW8ELN-10. If no packets are shown the sender has not sent any weather packets the latest 10 day(s).
| Time | Temp. | Humidity | Pressure | Rain* | Wind** | Luminosity | Snow |
|---|---|---|---|---|---|---|---|
| 1778024584 | 13.89° C | 71% | 989.4 hPa | - | - | - | - |
| 1778020991 | 13.89° C | 71% | 989.8 hPa | - | - | - | - |
| 1778017384 | 13.89° C | 72% | 990.1 hPa | - | - | - | - |
| 1778013783 | 13.89° C | 71% | 990.3 hPa | - | - | - | - |
| 1778010183 | 14.44° C | 72% | 990.2 hPa | - | - | - | - |
| 1778006583 | 14.44° C | 69% | 989.8 hPa | - | - | - | - |
| 1778002983 | 14.44° C | 65% | 989.7 hPa | - | - | - | - |
| 1777999383 | 14.44° C | 63% | 989.9 hPa | - | - | - | - |
| 1777992183 | 15° C | 60% | 990.1 hPa | - | - | - | - |
| 1777988589 | 15° C | 60% | 990.3 hPa | - | - | - | - |
| 1777984982 | 15° C | 59% | 990.7 hPa | - | - | - | - |
| 1777981382 | 14.44° C | 62% | 991.1 hPa | - | - | - | - |
| 1777977789 | -10° C | 63% | 954.2 hPa | - | - | - | - |
| 1777974182 | 14.44° C | 65% | 991.4 hPa | - | - | - | - |
| 1777970589 | 13.89° C | 66% | 991.2 hPa | - | - | - | - |
| 1777966982 | 13.33° C | 71% | 991.4 hPa | - | - | - | - |
| 1777963389 | 12.78° C | 71% | 991.4 hPa | - | - | - | - |
| 1777959789 | 12.78° C | 68% | 991.1 hPa | - | - | - | - |
| 1777956188 | 5° C | 65% | 979.3 hPa | - | - | - | - |
| 1777948988 | 13.33° C | 64% | 991 hPa | - | - | - | - |
| 1777945388 | 13.33° C | 63% | 991.6 hPa | - | - | - | - |
| 1777941788 | 13.33° C | 64% | 992.1 hPa | - | - | - | - |
| 1777938188 | 13.33° C | 64% | 992.2 hPa | - | - | - | - |
| 1777934588 | 13.89° C | 64% | 992.6 hPa | - | - | - | - |
| 1777930981 | 13.89° C | 64% | 992.8 hPa | - | - | - | - |
* Rain since midnight (hover to see other rain measurements)
** Current wind speed in m/s (hover to see current wind gust speed)